createdAt,value
2018-12-06T00:00:49.295Z,80.85
2018-12-06T00:01:49.270Z,80.85
2018-12-06T00:02:49.257Z,80.85
2018-12-06T00:03:49.257Z,80.74
2018-12-06T00:04:49.237Z,81.05
2018-12-06T00:05:49.261Z,80.74
2018-12-06T00:06:49.215Z,80.43
2018-12-06T00:07:49.203Z,80.64
2018-12-06T00:08:49.191Z,80.54
2018-12-06T00:09:49.202Z,80.64
2018-12-06T00:10:49.177Z,80.64
2018-12-06T00:11:49.169Z,80.85
2018-12-06T00:12:49.151Z,81.05
2018-12-06T00:13:49.135Z,81.05
2018-12-06T00:14:49.123Z,80.95
2018-12-06T00:15:49.114Z,81.16
2018-12-06T00:16:49.137Z,80.95
2018-12-06T00:17:49.093Z,80.60
2018-12-06T00:18:49.086Z,80.81
2018-12-06T00:19:49.089Z,80.71
2018-12-06T00:20:49.061Z,80.81
2018-12-06T00:21:49.078Z,80.64
2018-12-06T00:22:49.039Z,80.74
2018-12-06T00:23:49.025Z,80.29
2018-12-06T00:24:49.041Z,80.40
2018-12-06T00:25:49.007Z,80.22
2018-12-06T00:26:49.012Z,80.19
2018-12-06T00:27:48.995Z,80.19
2018-12-06T00:28:48.972Z,80.29
2018-12-06T00:29:48.990Z,80.02
2018-12-06T00:30:48.949Z,80.60
2018-12-06T00:31:48.967Z,80.71
2018-12-06T00:32:48.927Z,80.43
2018-12-06T00:33:48.917Z,80.33
2018-12-06T00:34:48.905Z,80.50
2018-12-06T00:35:48.892Z,80.19
2018-12-06T00:36:48.901Z,79.56
2018-12-06T00:37:48.871Z,80.29
2018-12-06T00:38:48.864Z,79.98
2018-12-06T00:39:48.847Z,80.29
2018-12-06T00:40:48.837Z,80.50
2018-12-06T00:41:48.855Z,80.43
2018-12-06T00:42:48.824Z,80.54
2018-12-06T00:43:48.812Z,80.95
2018-12-06T00:44:48.809Z,80.50
2018-12-06T00:45:48.787Z,79.87
2018-12-06T00:46:48.799Z,79.98
2018-12-06T00:47:48.764Z,79.35
2018-12-06T00:48:48.830Z,80.08
2018-12-06T00:49:48.761Z,80.50
2018-12-06T00:50:48.735Z,80.08
2018-12-06T00:51:48.732Z,79.94
2018-12-06T00:52:48.710Z,80.08
2018-12-06T00:53:48.697Z,80.71
2018-12-06T00:54:48.720Z,79.46
2018-12-06T00:55:48.681Z,79.98
2018-12-06T00:56:48.697Z,80.50
2018-12-06T00:57:48.657Z,80.29
2018-12-06T00:58:48.646Z,79.35
2018-12-06T00:59:48.636Z,79.83
2018-12-06T01:00:48.625Z,79.46
2018-12-06T01:01:48.632Z,79.32
2018-12-06T01:02:48.601Z,79.21
2018-12-06T01:03:48.588Z,79.21
2018-12-06T01:04:48.579Z,79.04
2018-12-06T01:05:48.567Z,79.52
2018-12-06T01:06:48.572Z,79.46
2018-12-06T01:07:48.542Z,79.25
2018-12-06T01:08:48.533Z,79.21
2018-12-06T01:09:48.521Z,79.32
2018-12-06T01:10:48.508Z,78.69
2018-12-06T01:11:48.520Z,79.11
2018-12-06T01:12:48.506Z,79.32
2018-12-06T01:13:48.479Z,79.11
2018-12-06T01:14:48.471Z,79.32
2018-12-06T01:15:48.471Z,79.42
2018-12-06T01:16:48.460Z,78.80
2018-12-06T01:17:48.438Z,78.90
2018-12-06T01:18:48.437Z,78.90
2018-12-06T01:19:48.449Z,79.00
2018-12-06T01:20:48.424Z,78.90
2018-12-06T01:21:48.392Z,78.59
2018-12-06T01:22:48.382Z,78.17
2018-12-06T01:23:48.379Z,78.90
2018-12-06T01:24:48.362Z,78.90
2018-12-06T01:25:48.373Z,78.59
2018-12-06T01:26:48.337Z,79.00
2018-12-06T01:27:48.349Z,78.07
2018-12-06T01:28:48.342Z,79.00
2018-12-06T01:29:48.332Z,78.69
2018-12-06T01:30:48.313Z,78.59
2018-12-06T01:31:48.282Z,78.80
2018-12-06T01:32:48.277Z,79.00
2018-12-06T01:33:48.295Z,78.69
2018-12-06T01:34:48.250Z,78.90
2018-12-06T01:35:48.240Z,79.11
2018-12-06T01:36:48.228Z,78.38
2018-12-06T01:37:48.215Z,78.28
2018-12-06T01:38:48.228Z,78.59
2018-12-06T01:39:48.195Z,78.69
2018-12-06T01:40:48.186Z,78.55
2018-12-06T01:41:48.183Z,78.14
2018-12-06T01:42:48.167Z,78.24
2018-12-06T01:43:48.170Z,77.34
2018-12-06T01:44:48.138Z,77.86
2018-12-06T01:45:48.142Z,77.65
2018-12-06T01:46:48.119Z,78.49
2018-12-06T01:47:48.107Z,77.86
2018-12-06T01:48:48.131Z,77.75
2018-12-06T01:49:48.082Z,78.28
2018-12-06T01:50:48.088Z,78.59
2018-12-06T01:51:48.061Z,78.07
2018-12-06T01:52:48.052Z,78.07
2018-12-06T01:53:48.062Z,78.90
2018-12-06T01:54:48.029Z,78.17
2018-12-06T01:55:48.019Z,78.17
2018-12-06T01:56:48.011Z,77.83
2018-12-06T01:57:48.001Z,77.86
2018-12-06T01:58:48.009Z,78.66
2018-12-06T01:59:47.972Z,77.96
2018-12-06T02:00:47.960Z,77.55
2018-12-06T02:01:47.954Z,78.38
2018-12-06T02:02:47.973Z,78.49
2018-12-06T02:03:47.951Z,79.11
2018-12-06T02:04:47.932Z,78.59
2018-12-06T02:05:47.934Z,79.00
2018-12-06T02:06:47.893Z,78.03
2018-12-06T02:07:47.894Z,77.96
2018-12-06T02:08:47.871Z,78.17
2018-12-06T02:09:47.884Z,78.17
2018-12-06T02:10:47.870Z,78.17
2018-12-06T02:11:47.843Z,78.17
2018-12-06T02:12:47.830Z,78.07
2018-12-06T02:13:47.820Z,77.83
2018-12-06T02:14:47.824Z,78.07
2018-12-06T02:15:47.799Z,78.17
2018-12-06T02:16:47.786Z,78.07
2018-12-06T02:17:47.787Z,77.13
2018-12-06T02:18:47.766Z,78.80
2018-12-06T02:19:47.772Z,78.90
2018-12-06T02:20:47.757Z,78.07
2018-12-06T02:21:47.734Z,79.00
2018-12-06T02:22:47.723Z,78.17
2018-12-06T02:23:47.710Z,78.90
2018-12-06T02:24:47.714Z,78.38
2018-12-06T02:25:47.689Z,79.00
2018-12-06T02:26:47.680Z,78.86
2018-12-06T02:27:47.680Z,78.59
2018-12-06T02:28:47.665Z,78.17
2018-12-06T02:29:47.667Z,77.34
2018-12-06T02:30:47.642Z,78.28
2018-12-06T02:31:47.648Z,78.55
2018-12-06T02:32:47.617Z,78.28
2018-12-06T02:33:47.603Z,77.72
2018-12-06T02:34:47.589Z,77.40
2018-12-06T02:35:47.611Z,78.03
2018-12-06T02:36:47.573Z,77.30
2018-12-06T02:37:47.561Z,78.14
2018-12-06T02:38:47.549Z,77.44
2018-12-06T02:39:47.535Z,77.83
2018-12-06T02:40:47.549Z,78.24
2018-12-06T02:41:47.515Z,78.24
2018-12-06T02:42:47.504Z,77.40
2018-12-06T02:43:47.493Z,78.03
2018-12-06T02:44:47.486Z,77.72
2018-12-06T02:45:47.593Z,78.14
2018-12-06T02:46:47.457Z,77.65
2018-12-06T02:47:47.452Z,77.40
2018-12-06T02:48:47.445Z,78.03
2018-12-06T02:49:47.427Z,78.34
2018-12-06T02:50:47.491Z,78.14
2018-12-06T02:51:47.407Z,77.83
2018-12-06T02:52:47.413Z,77.83
2018-12-06T02:53:47.389Z,77.83
2018-12-06T02:54:47.375Z,77.61
2018-12-06T02:55:47.364Z,78.03
2018-12-06T02:56:47.368Z,78.03
2018-12-06T02:57:47.338Z,78.24
2018-12-06T02:58:47.327Z,77.72
2018-12-06T02:59:47.313Z,77.51
2018-12-06T03:00:47.302Z,77.51
2018-12-06T03:01:47.319Z,77.40
2018-12-06T03:02:47.284Z,77.20
2018-12-06T03:03:47.271Z,77.20
2018-12-06T03:04:47.270Z,77.51
2018-12-06T03:05:47.257Z,77.30
2018-12-06T03:06:47.263Z,77.09
2018-12-06T03:07:47.233Z,77.20
2018-12-06T03:08:47.220Z,77.51
2018-12-06T03:09:47.210Z,78.03
2018-12-06T03:10:47.205Z,76.89
2018-12-06T03:11:47.212Z,77.20
2018-12-06T03:12:47.187Z,77.40
2018-12-06T03:13:47.164Z,77.09
2018-12-06T03:14:47.154Z,77.20
2018-12-06T03:15:47.149Z,77.30
2018-12-06T03:16:47.147Z,77.30
2018-12-06T03:17:47.123Z,77.09
2018-12-06T03:18:47.118Z,77.40
2018-12-06T03:19:47.816Z,77.30
2018-12-06T03:20:47.088Z,76.99
2018-12-06T03:21:47.093Z,77.30
2018-12-06T03:22:47.083Z,77.20
2018-12-06T03:23:47.059Z,76.89
2018-12-06T03:24:47.047Z,76.78
2018-12-06T03:25:47.038Z,76.89
2018-12-06T03:26:47.024Z,76.68
2018-12-06T03:27:47.036Z,76.89
2018-12-06T03:28:47.004Z,77.09
2018-12-06T03:29:47.017Z,77.20
2018-12-06T03:30:46.997Z,76.57
2018-12-06T03:31:46.984Z,76.57
2018-12-06T03:32:46.975Z,76.68
2018-12-06T03:33:46.948Z,76.16
2018-12-06T03:34:46.933Z,77.09
2018-12-06T03:35:47.008Z,76.89
2018-12-06T03:36:47.765Z,76.47
2018-12-06T03:37:46.922Z,76.16
2018-12-06T03:38:46.900Z,76.16
2018-12-06T03:39:46.882Z,76.68
2018-12-06T03:40:46.880Z,76.26
2018-12-06T03:41:46.862Z,75.92
2018-12-06T03:42:46.888Z,75.50
2018-12-06T03:43:46.838Z,75.81
2018-12-06T03:44:46.831Z,75.32
2018-12-06T03:45:46.812Z,75.22
2018-12-06T03:46:46.807Z,75.09
2018-12-06T03:47:46.795Z,75.43
2018-12-06T03:48:46.870Z,75.74
2018-12-06T03:49:46.770Z,75.22
2018-12-06T03:50:46.761Z,74.98
2018-12-06T03:51:46.748Z,74.46
2018-12-06T03:52:46.739Z,74.49
2018-12-06T03:53:46.749Z,74.67
2018-12-06T03:54:46.718Z,74.98
2018-12-06T03:55:46.704Z,74.67
2018-12-06T03:56:46.697Z,74.46
2018-12-06T03:57:46.687Z,74.46
2018-12-06T03:58:46.702Z,74.46
2018-12-06T03:59:46.658Z,74.35
2018-12-06T04:00:46.652Z,74.15
2018-12-06T04:01:46.674Z,74.57
2018-12-06T04:02:46.645Z,74.25
2018-12-06T04:03:46.640Z,74.25
2018-12-06T04:04:46.616Z,74.25
2018-12-06T04:05:46.597Z,73.63
2018-12-06T04:06:46.588Z,72.97
2018-12-06T04:07:46.575Z,73.91
2018-12-06T04:08:46.590Z,73.60
2018-12-06T04:09:46.552Z,73.39
2018-12-06T04:10:46.545Z,73.11
2018-12-06T04:11:46.532Z,73.70
2018-12-06T04:12:46.524Z,73.39
2018-12-06T04:13:46.530Z,72.76
2018-12-06T04:14:46.496Z,72.24
2018-12-06T04:15:46.490Z,72.66
2018-12-06T04:16:46.482Z,72.66
2018-12-06T04:17:46.473Z,72.14
2018-12-06T04:18:46.475Z,72.24
2018-12-06T04:19:46.443Z,72.97
2018-12-06T04:20:46.437Z,72.34
2018-12-06T04:21:46.423Z,71.83
2018-12-06T04:22:46.415Z,72.03
2018-12-06T04:23:46.418Z,72.14
2018-12-06T04:24:46.393Z,71.31
2018-12-06T04:25:46.383Z,72.03
2018-12-06T04:26:46.380Z,71.51
2018-12-06T04:27:46.381Z,72.03
2018-12-06T04:28:46.365Z,71.10
2018-12-06T04:29:46.337Z,71.72
2018-12-06T04:30:46.324Z,70.89
2018-12-06T04:31:46.313Z,70.48
2018-12-06T04:32:46.302Z,70.44
2018-12-06T04:33:46.306Z,71.20
2018-12-06T04:34:46.283Z,70.48
2018-12-06T04:35:46.265Z,71.20
2018-12-06T04:36:46.263Z,70.27
2018-12-06T04:37:46.245Z,70.03
2018-12-06T04:38:46.256Z,70.23
2018-12-06T04:39:46.227Z,70.17
2018-12-06T04:40:46.210Z,71.00
2018-12-06T04:41:46.203Z,69.40
2018-12-06T04:42:46.194Z,70.58
2018-12-06T04:43:46.200Z,70.44
2018-12-06T04:44:46.175Z,70.44
2018-12-06T04:45:46.159Z,70.13
2018-12-06T04:46:46.147Z,69.51
2018-12-06T04:47:46.134Z,69.51
2018-12-06T04:48:46.163Z,70.03
2018-12-06T04:49:46.113Z,70.03
2018-12-06T04:50:46.157Z,69.82
2018-12-06T04:51:46.095Z,70.44
2018-12-06T04:52:46.090Z,70.13
2018-12-06T04:53:46.083Z,69.92
2018-12-06T04:54:46.080Z,70.03
2018-12-06T04:55:46.056Z,69.40
2018-12-06T04:56:46.033Z,70.03
2018-12-06T04:57:46.027Z,69.92
2018-12-06T04:58:46.018Z,70.23
2018-12-06T04:59:46.025Z,70.34
2018-12-06T05:00:45.996Z,70.23
2018-12-06T05:01:45.983Z,70.13
2018-12-06T05:02:45.973Z,70.03
2018-12-06T05:03:45.963Z,70.75
2018-12-06T05:04:45.971Z,70.97
2018-12-06T05:05:45.938Z,70.44
2018-12-06T05:06:45.936Z,70.65
2018-12-06T05:07:45.917Z,70.13
2018-12-06T05:08:45.914Z,70.75
2018-12-06T05:09:45.921Z,70.97
2018-12-06T05:10:45.886Z,70.03
2018-12-06T05:11:45.877Z,69.79
2018-12-06T05:12:45.866Z,70.34
2018-12-06T05:13:45.852Z,70.10
2018-12-06T05:14:45.861Z,69.92
2018-12-06T05:15:53.230Z,70.41
2018-12-06T05:17:01.765Z,69.92
2018-12-06T05:17:45.808Z,70.00
2018-12-06T05:18:45.801Z,70.20
2018-12-06T05:19:45.809Z,70.41
2018-12-06T05:20:45.779Z,70.10
2018-12-06T05:21:45.766Z,69.79
2018-12-06T05:22:45.757Z,69.79
2018-12-06T05:23:45.756Z,70.10
2018-12-06T05:24:45.761Z,69.89
2018-12-06T05:25:45.723Z,70.00
2018-12-06T05:26:45.712Z,70.20
2018-12-06T05:27:45.698Z,70.20
2018-12-06T05:28:45.694Z,70.00
2018-12-06T05:29:45.695Z,70.62
2018-12-06T05:30:45.665Z,70.20
2018-12-06T05:31:45.658Z,69.37
2018-12-06T05:32:45.662Z,70.83
2018-12-06T05:33:45.638Z,69.79
2018-12-06T05:34:45.665Z,69.58
2018-12-06T05:35:45.611Z,69.65
2018-12-06T05:36:45.599Z,69.68
2018-12-06T05:37:45.599Z,69.68
2018-12-06T05:38:45.593Z,69.48
2018-12-06T05:39:45.571Z,70.51
2018-12-06T05:40:45.653Z,69.37
2018-12-06T05:41:45.543Z,69.27
2018-12-06T05:42:45.535Z,69.27
2018-12-06T05:43:45.523Z,69.17
2018-12-06T05:44:45.511Z,68.85
2018-12-06T05:45:45.521Z,68.85
2018-12-06T05:46:45.487Z,68.51
2018-12-06T05:47:45.485Z,67.79
2018-12-06T05:48:45.468Z,68.41
2018-12-06T05:49:45.461Z,67.16
2018-12-06T05:50:45.476Z,67.99
2018-12-06T05:51:45.435Z,67.68
2018-12-06T05:52:45.423Z,67.27
2018-12-06T05:53:45.417Z,67.68
2018-12-06T05:54:45.405Z,67.37
2018-12-06T05:55:45.417Z,67.06
2018-12-06T05:56:45.377Z,66.96
2018-12-06T05:57:45.367Z,66.75
2018-12-06T05:58:45.355Z,67.37
2018-12-06T05:59:45.343Z,66.85
2018-12-06T06:00:45.353Z,67.40
2018-12-06T06:01:45.327Z,67.68
2018-12-06T06:02:45.323Z,67.37
2018-12-06T06:03:45.303Z,67.16
2018-12-06T06:04:45.298Z,66.96
2018-12-06T06:05:45.299Z,67.16
2018-12-06T06:06:45.269Z,67.27
2018-12-06T06:07:45.257Z,67.58
2018-12-06T06:08:45.248Z,67.40
2018-12-06T06:09:45.239Z,67.16
2018-12-06T06:10:45.247Z,66.33
2018-12-06T06:11:45.217Z,66.85
2018-12-06T06:12:45.205Z,66.96
2018-12-06T06:13:45.189Z,67.37
2018-12-06T06:14:45.191Z,66.54
2018-12-06T06:15:45.186Z,66.85
2018-12-06T06:16:45.159Z,66.33
2018-12-06T06:17:45.171Z,66.54
2018-12-06T06:18:45.144Z,66.75
2018-12-06T06:19:45.121Z,67.27
2018-12-06T06:20:45.149Z,66.22
2018-12-06T06:21:45.104Z,66.33
2018-12-06T06:22:45.092Z,66.85
2018-12-06T06:23:45.090Z,66.51
2018-12-06T06:24:45.073Z,66.09
2018-12-06T06:25:45.068Z,66.72
2018-12-06T06:26:45.072Z,66.02
2018-12-06T06:27:45.037Z,65.99
2018-12-06T06:28:45.031Z,66.20
2018-12-06T06:29:45.017Z,66.12
2018-12-06T06:30:45.002Z,65.89
2018-12-06T06:31:45.016Z,66.02
2018-12-06T06:32:44.982Z,65.68
2018-12-06T06:33:44.971Z,65.60
2018-12-06T06:34:44.965Z,65.99
2018-12-06T06:35:44.952Z,65.99
2018-12-06T06:36:44.962Z,64.75
2018-12-06T06:37:44.927Z,65.58
2018-12-06T06:38:44.918Z,65.58
2018-12-06T06:39:44.904Z,66.20
2018-12-06T06:40:44.896Z,66.41
2018-12-06T06:41:44.906Z,66.30
2018-12-06T06:42:44.872Z,66.61
2018-12-06T06:43:44.868Z,66.51
2018-12-06T06:44:44.851Z,66.30
2018-12-06T06:45:44.839Z,65.68
2018-12-06T06:46:44.844Z,65.89
2018-12-06T06:47:44.819Z,64.95
2018-12-06T06:48:44.813Z,65.47
2018-12-06T06:49:44.805Z,65.06
2018-12-06T06:50:44.786Z,64.72
2018-12-06T06:51:44.794Z,65.89
2018-12-06T06:52:44.762Z,65.86
2018-12-06T06:53:44.753Z,65.86
2018-12-06T06:54:44.743Z,65.65
2018-12-06T06:55:44.731Z,65.75
2018-12-06T06:56:44.733Z,65.03
2018-12-06T06:57:44.709Z,65.13
2018-12-06T06:58:44.699Z,65.75
2018-12-06T06:59:44.693Z,65.75
2018-12-06T07:00:44.679Z,65.55
2018-12-06T07:01:44.685Z,65.86
2018-12-06T07:02:44.673Z,65.75
2018-12-06T07:03:44.645Z,65.23
2018-12-06T07:04:44.655Z,64.82
2018-12-06T07:05:44.620Z,65.03
2018-12-06T07:06:44.609Z,65.26
2018-12-06T07:07:44.613Z,65.34
2018-12-06T07:08:44.585Z,64.92
2018-12-06T07:09:44.575Z,66.06
2018-12-06T07:10:44.567Z,65.55
2018-12-06T07:11:44.553Z,65.23
2018-12-06T07:12:44.558Z,65.03
2018-12-06T07:13:44.541Z,64.72
2018-12-06T07:14:44.524Z,64.92
2018-12-06T07:15:44.507Z,65.58
2018-12-06T07:16:44.503Z,64.85
2018-12-06T07:17:44.509Z,65.06
2018-12-06T07:18:44.477Z,64.75
2018-12-06T07:19:44.466Z,65.06
2018-12-06T07:20:44.456Z,65.26
2018-12-06T07:21:44.445Z,64.95
2018-12-06T07:22:44.459Z,64.85
2018-12-06T07:23:44.419Z,65.16
2018-12-06T07:24:44.411Z,64.85
2018-12-06T07:25:46.427Z,65.37
2018-12-06T07:26:44.465Z,65.37
2018-12-06T07:27:44.393Z,65.37
2018-12-06T07:28:45.234Z,65.68
2018-12-06T07:29:44.370Z,64.85
2018-12-06T07:30:44.349Z,65.06
2018-12-06T07:31:44.335Z,65.06
2018-12-06T07:32:44.347Z,65.58
2018-12-06T07:33:44.319Z,65.58
2018-12-06T07:34:44.302Z,65.58
2018-12-06T07:35:44.295Z,65.47
2018-12-06T07:36:44.283Z,65.58
2018-12-06T07:37:44.282Z,65.78
2018-12-06T07:38:44.255Z,65.89
2018-12-06T07:39:44.246Z,65.89
2018-12-06T07:40:44.265Z,65.89
2018-12-06T07:41:44.222Z,65.68
2018-12-06T07:42:44.247Z,65.47
2018-12-06T07:43:44.203Z,65.58
2018-12-06T07:44:44.191Z,65.44
2018-12-06T07:45:44.181Z,65.65
2018-12-06T07:46:44.166Z,65.44
2018-12-06T07:47:44.183Z,65.23
2018-12-06T07:48:44.145Z,64.51
2018-12-06T07:49:44.138Z,64.92
2018-12-06T07:50:44.119Z,64.40
2018-12-06T07:51:44.112Z,64.09
2018-12-06T07:52:44.130Z,65.03
2018-12-06T07:53:44.087Z,64.51
2018-12-06T07:54:44.085Z,64.40
2018-12-06T07:55:44.071Z,64.54
2018-12-06T07:56:44.061Z,64.54
2018-12-06T07:57:44.048Z,64.82
2018-12-06T07:58:44.059Z,64.51
2018-12-06T07:59:44.023Z,65.06
2018-12-06T08:00:44.012Z,64.54
2018-12-06T08:01:44.000Z,64.95
2018-12-06T08:02:43.992Z,64.85
2018-12-06T08:03:43.995Z,65.34
2018-12-06T08:04:43.972Z,64.54
2018-12-06T08:05:43.961Z,64.92
2018-12-06T08:06:43.951Z,64.92
2018-12-06T08:07:43.933Z,64.61
2018-12-06T08:08:43.955Z,64.61
2018-12-06T08:09:43.914Z,64.72
2018-12-06T08:10:43.903Z,64.64
2018-12-06T08:11:43.893Z,64.51
2018-12-06T08:12:43.894Z,64.51
2018-12-06T08:13:43.896Z,64.61
2018-12-06T08:14:43.858Z,64.51
2018-12-06T08:15:43.858Z,64.61
2018-12-06T08:16:43.842Z,64.61
2018-12-06T08:17:43.824Z,64.40
2018-12-06T08:18:43.833Z,65.34
2018-12-06T08:19:43.801Z,64.30
2018-12-06T08:20:43.793Z,64.51
2018-12-06T08:21:43.789Z,64.48
2018-12-06T08:22:43.768Z,64.27
2018-12-06T08:23:43.775Z,63.65
2018-12-06T08:24:43.756Z,63.96
2018-12-06T08:25:43.739Z,63.54
2018-12-06T08:26:43.735Z,63.96
2018-12-06T08:27:43.724Z,63.54
2018-12-06T08:28:43.733Z,64.06
2018-12-06T08:29:43.694Z,64.17
2018-12-06T08:30:43.692Z,63.75
2018-12-06T08:31:43.671Z,63.65
2018-12-06T08:32:43.667Z,63.65
2018-12-06T08:33:43.654Z,63.65
2018-12-06T08:34:43.655Z,64.06
2018-12-06T08:35:43.654Z,63.68
2018-12-06T08:36:43.615Z,63.96
2018-12-06T08:37:43.607Z,63.54
2018-12-06T08:38:43.596Z,63.54
2018-12-06T08:39:43.614Z,64.17
2018-12-06T08:40:43.574Z,63.65
2018-12-06T08:41:43.580Z,63.54
2018-12-06T08:42:45.896Z,63.85
2018-12-06T08:43:43.569Z,63.75
2018-12-06T08:44:43.548Z,63.54
2018-12-06T08:45:43.519Z,64.06
2018-12-06T08:46:43.511Z,64.17
2018-12-06T08:47:43.509Z,63.82
2018-12-06T08:48:43.481Z,63.44
2018-12-06T08:49:43.485Z,63.51
2018-12-06T08:50:43.457Z,63.65
2018-12-06T08:51:43.453Z,64.14
2018-12-06T08:52:43.446Z,62.99
2018-12-06T08:53:43.431Z,63.31
2018-12-06T08:54:43.437Z,63.31
2018-12-06T08:55:43.405Z,62.99
2018-12-06T08:56:43.387Z,63.41
2018-12-06T08:57:43.384Z,63.20
2018-12-06T08:58:43.378Z,63.10
2018-12-06T08:59:43.387Z,62.99
2018-12-06T09:00:43.351Z,62.97
2018-12-06T09:01:43.348Z,62.76
2018-12-06T09:02:43.328Z,62.55
2018-12-06T09:03:43.317Z,62.04
2018-12-06T09:04:43.327Z,62.45
2018-12-06T09:05:43.293Z,62.24
2018-12-06T09:06:43.329Z,62.14
2018-12-06T09:07:43.269Z,62.24
2018-12-06T09:08:43.266Z,62.66
2018-12-06T09:09:43.263Z,62.45
2018-12-06T09:10:43.245Z,62.76
2018-12-06T09:11:43.224Z,62.45
2018-12-06T09:12:43.223Z,62.11
2018-12-06T09:13:43.207Z,62.42
2018-12-06T09:14:43.206Z,62.45
2018-12-06T09:15:43.182Z,62.66
2018-12-06T09:16:43.171Z,62.01
2018-12-06T09:17:43.158Z,62.14
2018-12-06T09:18:43.148Z,61.80
2018-12-06T09:19:43.161Z,61.69
2018-12-06T09:20:43.133Z,62.42
2018-12-06T09:21:43.117Z,62.11
2018-12-06T09:22:43.101Z,62.11
2018-12-06T09:23:43.093Z,62.01
2018-12-06T09:24:43.109Z,62.01
2018-12-06T09:25:43.073Z,61.28
2018-12-06T09:26:43.068Z,62.52
2018-12-06T09:27:43.047Z,62.01
2018-12-06T09:28:43.036Z,62.32
2018-12-06T09:29:43.025Z,61.59
2018-12-06T09:30:43.027Z,61.90
2018-12-06T09:31:43.023Z,62.21
2018-12-06T09:32:43.001Z,61.69
2018-12-06T09:33:42.985Z,61.49
2018-12-06T09:34:42.972Z,61.57
2018-12-06T09:35:42.979Z,61.69
2018-12-06T09:36:42.950Z,61.80
2018-12-06T09:37:42.937Z,62.01
2018-12-06T09:38:42.925Z,62.01
2018-12-06T09:39:42.915Z,61.59
2018-12-06T09:40:42.943Z,62.01
2018-12-06T09:41:42.896Z,61.80
2018-12-06T09:42:42.882Z,61.59
2018-12-06T09:43:42.882Z,61.38
2018-12-06T09:44:42.861Z,61.90
2018-12-06T09:45:42.865Z,62.01
2018-12-06T09:46:42.837Z,62.21
2018-12-06T09:47:42.825Z,62.21
2018-12-06T09:48:42.820Z,61.49
2018-12-06T09:49:42.801Z,62.01
2018-12-06T09:50:42.818Z,62.11
2018-12-06T09:51:42.783Z,61.80
2018-12-06T09:52:42.767Z,62.01
2018-12-06T09:53:42.759Z,61.80
2018-12-06T09:54:43.176Z,61.59
2018-12-06T09:55:42.755Z,61.49
2018-12-06T09:56:42.737Z,62.01
2018-12-06T09:57:42.728Z,61.80
2018-12-06T09:58:42.738Z,61.90
2018-12-06T09:59:42.693Z,62.21
2018-12-06T10:00:42.699Z,61.69
2018-12-06T10:01:42.699Z,61.59
2018-12-06T10:02:42.662Z,62.42
2018-12-06T10:03:42.648Z,62.42
2018-12-06T10:04:42.637Z,62.01
2018-12-06T10:05:42.644Z,62.18
2018-12-06T10:06:42.613Z,61.80
2018-12-06T10:07:42.605Z,61.69
2018-12-06T10:08:42.594Z,61.90
2018-12-06T10:09:42.583Z,62.11
2018-12-06T10:10:42.589Z,62.18
2018-12-06T10:11:42.559Z,61.67
2018-12-06T10:12:42.554Z,61.57
2018-12-06T10:13:42.539Z,61.67
2018-12-06T10:14:42.527Z,62.01
2018-12-06T10:15:42.537Z,62.01
2018-12-06T10:16:42.501Z,62.21
2018-12-06T10:17:42.493Z,62.52
2018-12-06T10:18:42.495Z,62.21
2018-12-06T10:19:42.482Z,62.42
2018-12-06T10:20:42.479Z,62.73
2018-12-06T10:21:42.449Z,62.11
2018-12-06T10:22:42.439Z,63.04
2018-12-06T10:23:42.477Z,62.32
2018-12-06T10:24:42.420Z,62.81
2018-12-06T10:25:42.438Z,62.49
2018-12-06T10:26:42.393Z,62.18
2018-12-06T10:27:42.391Z,61.98
2018-12-06T10:28:42.376Z,62.52
2018-12-06T10:29:42.366Z,62.11
2018-12-06T10:30:42.355Z,62.32
2018-12-06T10:31:42.361Z,62.49
2018-12-06T10:32:42.331Z,62.94
2018-12-06T10:33:42.318Z,62.52
2018-12-06T10:34:42.313Z,62.39
2018-12-06T10:35:42.301Z,63.01
2018-12-06T10:36:42.307Z,62.60
2018-12-06T10:37:42.278Z,63.01
2018-12-06T10:38:42.263Z,62.91
2018-12-06T10:39:42.251Z,62.91
2018-12-06T10:40:42.238Z,62.60
2018-12-06T10:41:42.255Z,63.84
2018-12-06T10:42:42.224Z,63.32
2018-12-06T10:43:42.212Z,63.32
2018-12-06T10:44:42.196Z,63.01
2018-12-06T10:45:42.189Z,63.50
2018-12-06T10:46:42.197Z,63.95
2018-12-06T10:47:42.163Z,62.57
2018-12-06T10:48:42.175Z,62.57
2018-12-06T10:49:42.147Z,63.29
2018-12-06T10:50:42.137Z,62.88
2018-12-06T10:51:42.143Z,62.77
2018-12-06T10:52:42.112Z,64.02
2018-12-06T10:53:42.098Z,63.29
2018-12-06T10:54:42.089Z,63.40
2018-12-06T10:55:42.081Z,62.57
2018-12-06T10:56:42.118Z,63.57
2018-12-06T10:57:42.063Z,62.16
2018-12-06T10:58:42.040Z,62.98
2018-12-06T10:59:42.035Z,62.46
2018-12-06T11:00:42.018Z,62.16
2018-12-06T11:01:42.050Z,62.46
2018-12-06T11:02:41.996Z,62.57
2018-12-06T11:03:41.989Z,62.02
2018-12-06T11:04:41.974Z,62.57
2018-12-06T11:05:41.973Z,62.44
2018-12-06T11:06:41.978Z,62.37
2018-12-06T11:07:41.946Z,62.02
2018-12-06T11:08:41.936Z,62.75
2018-12-06T11:09:41.922Z,62.54
2018-12-06T11:10:41.912Z,62.95
2018-12-06T11:11:41.925Z,62.34
2018-12-06T11:12:41.890Z,62.34
2018-12-06T11:13:41.878Z,62.23
2018-12-06T11:14:41.865Z,62.95
2018-12-06T11:15:41.857Z,62.85
2018-12-06T11:16:41.866Z,62.54
2018-12-06T11:17:41.839Z,62.85
2018-12-06T11:18:41.822Z,62.85
2018-12-06T11:19:41.821Z,62.75
2018-12-06T11:20:41.796Z,63.06
2018-12-06T11:21:41.817Z,62.85
2018-12-06T11:22:41.786Z,62.54
2018-12-06T11:23:41.767Z,63.03
2018-12-06T11:24:41.759Z,63.13
2018-12-06T11:25:41.744Z,62.72
2018-12-06T11:26:41.755Z,63.13
2018-12-06T11:27:41.729Z,62.93
2018-12-06T11:28:41.708Z,63.44
2018-12-06T11:29:41.701Z,63.44
2018-12-06T11:30:41.691Z,63.65
2018-12-06T11:31:41.710Z,63.23
2018-12-06T11:32:41.705Z,63.75
2018-12-06T11:33:41.658Z,63.65
2018-12-06T11:34:41.642Z,63.31
2018-12-06T11:35:41.630Z,63.31
2018-12-06T11:36:41.623Z,63.00
2018-12-06T11:37:41.627Z,62.69
2018-12-06T11:38:41.604Z,63.00
2018-12-06T11:39:41.586Z,63.00
2018-12-06T11:40:41.581Z,63.10
2018-12-06T11:41:43.224Z,63.72
2018-12-06T11:42:41.584Z,63.00
2018-12-06T11:43:41.540Z,63.62
2018-12-06T11:44:41.536Z,62.90
2018-12-06T11:45:41.524Z,63.72
2018-12-06T11:46:41.512Z,63.72
2018-12-06T11:47:41.516Z,63.31
2018-12-06T11:48:41.494Z,63.31
2018-12-06T11:49:41.476Z,63.42
2018-12-06T11:50:41.484Z,63.31
2018-12-06T11:51:41.454Z,63.42
2018-12-06T11:52:41.465Z,63.82
2018-12-06T11:53:41.438Z,63.79
2018-12-06T11:54:41.422Z,63.93
2018-12-06T11:55:41.414Z,64.21
2018-12-06T11:56:41.400Z,64.21
2018-12-06T11:57:41.412Z,64.00
2018-12-06T11:58:41.378Z,64.11
2018-12-06T11:59:41.368Z,64.73
2018-12-06T12:00:41.360Z,64.11
2018-12-06T12:01:41.341Z,64.62
2018-12-06T12:02:41.374Z,64.96
2018-12-06T12:03:41.320Z,64.55
2018-12-06T12:04:41.314Z,65.06
2018-12-06T12:05:41.301Z,65.14
2018-12-06T12:06:41.289Z,65.24
2018-12-06T12:07:41.291Z,65.55
2018-12-06T12:08:41.277Z,65.45
2018-12-06T12:09:41.256Z,65.06
2018-12-06T12:10:41.246Z,65.24
2018-12-06T12:11:41.234Z,65.14
2018-12-06T12:12:41.246Z,65.34
2018-12-06T12:13:41.289Z,65.79
2018-12-06T12:14:41.203Z,66.07
2018-12-06T12:15:41.198Z,65.66
2018-12-06T12:16:41.182Z,66.27
2018-12-06T12:17:41.203Z,66.58
2018-12-06T12:18:41.156Z,65.76
2018-12-06T12:19:41.147Z,66.20
2018-12-06T12:20:41.140Z,66.07
2018-12-06T12:21:41.131Z,66.17
2018-12-06T12:22:41.115Z,66.07
2018-12-06T12:23:41.118Z,66.69
2018-12-06T12:24:41.089Z,66.79
2018-12-06T12:25:41.086Z,66.58
2018-12-06T12:26:41.074Z,66.38
2018-12-06T12:27:41.055Z,66.69
2018-12-06T12:28:41.064Z,67.30
2018-12-06T12:29:41.058Z,66.38
2018-12-06T12:30:41.023Z,67.00
2018-12-06T12:31:41.008Z,66.89
2018-12-06T12:32:41.078Z,67.00
2018-12-06T12:33:41.012Z,66.97
2018-12-06T12:34:40.985Z,67.10
2018-12-06T12:35:40.970Z,67.17
2018-12-06T12:36:40.956Z,66.79
2018-12-06T12:37:40.953Z,66.66
2018-12-06T12:38:40.943Z,66.55
2018-12-06T12:39:40.997Z,66.97
2018-12-06T12:40:40.915Z,67.17
2018-12-06T12:41:40.901Z,67.07
2018-12-06T12:42:40.894Z,67.07
2018-12-06T12:43:40.898Z,67.07
2018-12-06T12:44:40.868Z,66.97
2018-12-06T12:45:40.853Z,66.76
2018-12-06T12:46:40.850Z,66.97
2018-12-06T12:47:40.837Z,67.79
2018-12-06T12:48:40.850Z,67.90
2018-12-06T12:49:40.816Z,68.10
2018-12-06T12:50:40.976Z,68.10
2018-12-06T12:51:40.868Z,68.41
2018-12-06T12:52:40.776Z,68.62